sensor_id;sensor_type;location;lat;lon;timestamp;temperature;humidity
70456;DHT22;57916;51.996;5.180;2024-02-15T00:00:17;16.00;86.40
70456;DHT22;57916;51.996;5.180;2024-02-15T00:02:44;16.00;86.40
70456;DHT22;57916;51.996;5.180;2024-02-15T00:05:12;16.00;86.40
70456;DHT22;57916;51.996;5.180;2024-02-15T00:07:41;16.00;86.20
70456;DHT22;57916;51.996;5.180;2024-02-15T00:10:08;16.00;86.10
70456;DHT22;57916;51.996;5.180;2024-02-15T00:12:35;16.00;86.10
70456;DHT22;57916;51.996;5.180;2024-02-15T00:15:03;16.00;85.90
70456;DHT22;57916;51.996;5.180;2024-02-15T00:17:31;16.10;86.00
70456;DHT22;57916;51.996;5.180;2024-02-15T00:19:59;16.10;86.70
70456;DHT22;57916;51.996;5.180;2024-02-15T00:22:26;16.10;85.60
70456;DHT22;57916;51.996;5.180;2024-02-15T00:24:54;16.10;85.40
70456;DHT22;57916;51.996;5.180;2024-02-15T00:27:20;16.20;86.20
70456;DHT22;57916;51.996;5.180;2024-02-15T00:29:48;16.20;85.20
70456;DHT22;57916;51.996;5.180;2024-02-15T00:32:15;16.20;85.10
70456;DHT22;57916;51.996;5.180;2024-02-15T00:34:42;16.20;85.10
70456;DHT22;57916;51.996;5.180;2024-02-15T00:37:10;16.20;85.00
70456;DHT22;57916;51.996;5.180;2024-02-15T00:39:37;16.20;85.00
70456;DHT22;57916;51.996;5.180;2024-02-15T00:42:04;16.30;84.90
70456;DHT22;57916;51.996;5.180;2024-02-15T00:44:33;16.20;84.80
70456;DHT22;57916;51.996;5.180;2024-02-15T00:47:00;16.20;85.00
70456;DHT22;57916;51.996;5.180;2024-02-15T00:49:27;16.20;85.00
70456;DHT22;57916;51.996;5.180;2024-02-15T00:51:55;16.20;85.00
70456;DHT22;57916;51.996;5.180;2024-02-15T00:54:22;16.20;85.10
70456;DHT22;57916;51.996;5.180;2024-02-15T00:56:50;16.10;85.20
70456;DHT22;57916;51.996;5.180;2024-02-15T00:59:17;16.10;85.40
70456;DHT22;57916;51.996;5.180;2024-02-15T01:01:45;16.00;85.60
70456;DHT22;57916;51.996;5.180;2024-02-15T01:04:13;16.00;85.80
70456;DHT22;57916;51.996;5.180;2024-02-15T01:06:40;16.00;85.90
70456;DHT22;57916;51.996;5.180;2024-02-15T01:09:08;15.90;86.00
70456;DHT22;57916;51.996;5.180;2024-02-15T01:11:36;15.90;86.20
70456;DHT22;57916;51.996;5.180;2024-02-15T01:14:04;15.80;86.30
70456;DHT22;57916;51.996;5.180;2024-02-15T01:16:31;15.80;86.50
70456;DHT22;57916;51.996;5.180;2024-02-15T01:18:58;15.80;86.60
70456;DHT22;57916;51.996;5.180;2024-02-15T01:21:26;15.80;86.80
70456;DHT22;57916;51.996;5.180;2024-02-15T01:23:53;15.90;86.80
70456;DHT22;57916;51.996;5.180;2024-02-15T01:26:22;15.90;86.80
70456;DHT22;57916;51.996;5.180;2024-02-15T01:28:50;15.90;86.70
70456;DHT22;57916;51.996;5.180;2024-02-15T01:31:17;15.90;86.70
70456;DHT22;57916;51.996;5.180;2024-02-15T01:33:44;15.90;86.70
70456;DHT22;57916;51.996;5.180;2024-02-15T01:36:16;15.90;86.70
70456;DHT22;57916;51.996;5.180;2024-02-15T01:38:43;15.90;86.90
70456;DHT22;57916;51.996;5.180;2024-02-15T01:41:11;15.90;86.70
70456;DHT22;57916;51.996;5.180;2024-02-15T01:43:43;15.90;86.70
70456;DHT22;57916;51.996;5.180;2024-02-15T01:46:11;15.90;86.70
70456;DHT22;57916;51.996;5.180;2024-02-15T01:48:40;15.90;86.70
70456;DHT22;57916;51.996;5.180;2024-02-15T01:51:10;15.80;86.80
70456;DHT22;57916;51.996;5.180;2024-02-15T01:53:38;15.80;87.00
70456;DHT22;57916;51.996;5.180;2024-02-15T01:56:07;15.80;87.00
70456;DHT22;57916;51.996;5.180;2024-02-15T01:58:34;15.80;87.10
70456;DHT22;57916;51.996;5.180;2024-02-15T02:01:03;15.80;87.00
70456;DHT22;57916;51.996;5.180;2024-02-15T02:03:31;15.80;87.10
70456;DHT22;57916;51.996;5.180;2024-02-15T02:05:58;15.80;87.30
70456;DHT22;57916;51.996;5.180;2024-02-15T02:08:27;15.80;87.50
70456;DHT22;57916;51.996;5.180;2024-02-15T02:10:54;15.80;87.50
70456;DHT22;57916;51.996;5.180;2024-02-15T02:13:21;15.80;87.50
70456;DHT22;57916;51.996;5.180;2024-02-15T02:15:48;15.70;87.20
70456;DHT22;57916;51.996;5.180;2024-02-15T02:18:16;15.80;87.10
70456;DHT22;57916;51.996;5.180;2024-02-15T02:20:43;15.70;86.90
70456;DHT22;57916;51.996;5.180;2024-02-15T02:23:15;15.70;86.70
70456;DHT22;57916;51.996;5.180;2024-02-15T02:25:43;15.70;86.60
70456;DHT22;57916;51.996;5.180;2024-02-15T02:28:11;15.60;86.50
70456;DHT22;57916;51.996;5.180;2024-02-15T02:30:39;15.70;86.50
70456;DHT22;57916;51.996;5.180;2024-02-15T02:33:12;15.60;86.40
70456;DHT22;57916;51.996;5.180;2024-02-15T02:35:47;15.60;86.50
70456;DHT22;57916;51.996;5.180;2024-02-15T02:38:15;15.60;86.60
70456;DHT22;57916;51.996;5.180;2024-02-15T02:40:42;15.50;86.60
70456;DHT22;57916;51.996;5.180;2024-02-15T02:43:09;15.50;86.70
70456;DHT22;57916;51.996;5.180;2024-02-15T02:45:37;15.50;86.80
70456;DHT22;57916;51.996;5.180;2024-02-15T02:48:04;15.50;86.80
70456;DHT22;57916;51.996;5.180;2024-02-15T02:50:32;15.50;87.00
70456;DHT22;57916;51.996;5.180;2024-02-15T02:52:59;15.50;87.10
70456;DHT22;57916;51.996;5.180;2024-02-15T02:55:26;15.50;87.10
70456;DHT22;57916;51.996;5.180;2024-02-15T02:57:54;15.50;87.20
70456;DHT22;57916;51.996;5.180;2024-02-15T03:00:22;15.50;87.20
70456;DHT22;57916;51.996;5.180;2024-02-15T03:02:49;15.50;87.10
70456;DHT22;57916;51.996;5.180;2024-02-15T03:05:17;15.50;87.20
70456;DHT22;57916;51.996;5.180;2024-02-15T03:07:48;15.50;87.10
70456;DHT22;57916;51.996;5.180;2024-02-15T03:10:15;15.50;87.20
70456;DHT22;57916;51.996;5.180;2024-02-15T03:12:42;15.50;87.40
70456;DHT22;57916;51.996;5.180;2024-02-15T03:15:15;15.50;87.40
70456;DHT22;57916;51.996;5.180;2024-02-15T03:17:45;15.50;87.30
70456;DHT22;57916;51.996;5.180;2024-02-15T03:20:13;15.50;87.20
70456;DHT22;57916;51.996;5.180;2024-02-15T03:22:55;15.60;87.20
70456;DHT22;57916;51.996;5.180;2024-02-15T03:25:23;15.50;86.90
70456;DHT22;57916;51.996;5.180;2024-02-15T03:27:52;15.60;86.90
70456;DHT22;57916;51.996;5.180;2024-02-15T03:30:20;15.60;86.90
70456;DHT22;57916;51.996;5.180;2024-02-15T03:32:48;15.60;86.70
70456;DHT22;57916;51.996;5.180;2024-02-15T03:35:23;15.60;86.70
70456;DHT22;57916;51.996;5.180;2024-02-15T03:37:51;15.60;86.70
70456;DHT22;57916;51.996;5.180;2024-02-15T03:40:19;15.60;86.70
70456;DHT22;57916;51.996;5.180;2024-02-15T03:42:46;15.60;86.70
70456;DHT22;57916;51.996;5.180;2024-02-15T03:45:13;15.60;86.70
70456;DHT22;57916;51.996;5.180;2024-02-15T03:47:43;15.60;86.70
70456;DHT22;57916;51.996;5.180;2024-02-15T03:50:11;15.60;86.70
70456;DHT22;57916;51.996;5.180;2024-02-15T03:52:38;15.60;86.70
70456;DHT22;57916;51.996;5.180;2024-02-15T03:55:06;15.70;86.70
70456;DHT22;57916;51.996;5.180;2024-02-15T03:57:35;15.70;86.50
70456;DHT22;57916;51.996;5.180;2024-02-15T04:00:03;15.70;86.40
70456;DHT22;57916;51.996;5.180;2024-02-15T04:02:35;15.70;86.40
70456;DHT22;57916;51.996;5.180;2024-02-15T04:05:02;15.70;86.40
70456;DHT22;57916;51.996;5.180;2024-02-15T04:07:31;15.70;86.40
70456;DHT22;57916;51.996;5.180;2024-02-15T04:09:59;15.70;86.40
70456;DHT22;57916;51.996;5.180;2024-02-15T04:12:27;15.70;86.50
70456;DHT22;57916;51.996;5.180;2024-02-15T04:14:54;15.70;86.40
70456;DHT22;57916;51.996;5.180;2024-02-15T04:17:26;15.70;86.30
70456;DHT22;57916;51.996;5.180;2024-02-15T04:19:53;15.80;86.30
70456;DHT22;57916;51.996;5.180;2024-02-15T04:22:21;15.70;86.30
70456;DHT22;57916;51.996;5.180;2024-02-15T04:24:48;15.70;86.30
70456;DHT22;57916;51.996;5.180;2024-02-15T04:27:15;15.70;86.50
70456;DHT22;57916;51.996;5.180;2024-02-15T04:29:42;15.70;86.60
70456;DHT22;57916;51.996;5.180;2024-02-15T04:32:12;15.70;86.60
70456;DHT22;57916;51.996;5.180;2024-02-15T04:34:40;15.70;86.80
70456;DHT22;57916;51.996;5.180;2024-02-15T04:37:07;15.70;86.90
70456;DHT22;57916;51.996;5.180;2024-02-15T04:39:35;15.70;87.00
70456;DHT22;57916;51.996;5.180;2024-02-15T04:42:03;15.70;87.10
70456;DHT22;57916;51.996;5.180;2024-02-15T04:44:33;15.60;87.20
70456;DHT22;57916;51.996;5.180;2024-02-15T04:47:02;15.60;87.50
70456;DHT22;57916;51.996;5.180;2024-02-15T04:49:31;15.60;87.50
70456;DHT22;57916;51.996;5.180;2024-02-15T04:51:58;15.60;87.60
70456;DHT22;57916;51.996;5.180;2024-02-15T04:54:29;15.60;87.60
70456;DHT22;57916;51.996;5.180;2024-02-15T04:56:56;15.60;87.60
70456;DHT22;57916;51.996;5.180;2024-02-15T04:59:24;15.60;87.70
70456;DHT22;57916;51.996;5.180;2024-02-15T05:01:53;15.60;87.90
70456;DHT22;57916;51.996;5.180;2024-02-15T05:04:20;15.60;88.00
70456;DHT22;57916;51.996;5.180;2024-02-15T05:06:47;15.50;88.20
70456;DHT22;57916;51.996;5.180;2024-02-15T05:09:15;15.50;88.30
70456;DHT22;57916;51.996;5.180;2024-02-15T05:11:45;15.50;88.40
70456;DHT22;57916;51.996;5.180;2024-02-15T05:14:15;15.50;88.60
70456;DHT22;57916;51.996;5.180;2024-02-15T05:16:47;15.50;88.50
70456;DHT22;57916;51.996;5.180;2024-02-15T05:19:16;15.50;88.60
70456;DHT22;57916;51.996;5.180;2024-02-15T05:21:45;15.50;88.60
70456;DHT22;57916;51.996;5.180;2024-02-15T05:24:14;15.50;88.60
70456;DHT22;57916;51.996;5.180;2024-02-15T05:26:43;15.60;88.60
70456;DHT22;57916;51.996;5.180;2024-02-15T05:29:10;15.60;88.80
70456;DHT22;57916;51.996;5.180;2024-02-15T05:31:38;15.60;88.80
70456;DHT22;57916;51.996;5.180;2024-02-15T05:34:06;15.50;88.90
70456;DHT22;57916;51.996;5.180;2024-02-15T05:36:39;15.50;88.90
70456;DHT22;57916;51.996;5.180;2024-02-15T05:39:06;15.50;89.30
70456;DHT22;57916;51.996;5.180;2024-02-15T05:41:35;15.40;89.40
70456;DHT22;57916;51.996;5.180;2024-02-15T05:44:02;15.40;89.70
70456;DHT22;57916;51.996;5.180;2024-02-15T05:46:34;15.40;89.90
70456;DHT22;57916;51.996;5.180;2024-02-15T05:49:06;15.40;89.80
70456;DHT22;57916;51.996;5.180;2024-02-15T05:51:35;15.40;89.80
70456;DHT22;57916;51.996;5.180;2024-02-15T05:54:02;15.40;89.80
70456;DHT22;57916;51.996;5.180;2024-02-15T05:56:30;15.50;89.80
70456;DHT22;57916;51.996;5.180;2024-02-15T05:58:57;15.50;89.70
70456;DHT22;57916;51.996;5.180;2024-02-15T06:01:24;15.50;89.50
70456;DHT22;57916;51.996;5.180;2024-02-15T06:03:51;15.60;89.40
70456;DHT22;57916;51.996;5.180;2024-02-15T06:06:22;15.60;89.30
70456;DHT22;57916;51.996;5.180;2024-02-15T06:08:50;15.60;89.10
70456;DHT22;57916;51.996;5.180;2024-02-15T06:11:20;15.60;89.00
70456;DHT22;57916;51.996;5.180;2024-02-15T06:13:48;15.60;89.10
70456;DHT22;57916;51.996;5.180;2024-02-15T06:16:15;15.60;89.10
70456;DHT22;57916;51.996;5.180;2024-02-15T06:18:42;15.60;89.00
70456;DHT22;57916;51.996;5.180;2024-02-15T06:21:10;15.60;89.00
70456;DHT22;57916;51.996;5.180;2024-02-15T06:23:37;15.60;89.10
70456;DHT22;57916;51.996;5.180;2024-02-15T06:26:04;15.60;89.20
70456;DHT22;57916;51.996;5.180;2024-02-15T06:28:32;15.60;89.20
70456;DHT22;57916;51.996;5.180;2024-02-15T06:31:17;15.60;89.20
70456;DHT22;57916;51.996;5.180;2024-02-15T06:34:03;15.60;89.10
70456;DHT22;57916;51.996;5.180;2024-02-15T06:36:59;15.60;89.30
70456;DHT22;57916;51.996;5.180;2024-02-15T06:39:45;15.60;89.40
70456;DHT22;57916;51.996;5.180;2024-02-15T06:42:16;15.60;89.30
70456;DHT22;57916;51.996;5.180;2024-02-15T06:44:47;15.60;89.20
70456;DHT22;57916;51.996;5.180;2024-02-15T06:47:16;15.70;89.10
70456;DHT22;57916;51.996;5.180;2024-02-15T06:49:48;15.70;89.00
70456;DHT22;57916;51.996;5.180;2024-02-15T06:52:18;15.70;89.00
70456;DHT22;57916;51.996;5.180;2024-02-15T06:54:45;15.70;88.90
70456;DHT22;57916;51.996;5.180;2024-02-15T06:57:12;15.70;88.70
70456;DHT22;57916;51.996;5.180;2024-02-15T06:59:40;15.70;88.70
70456;DHT22;57916;51.996;5.180;2024-02-15T07:02:07;15.70;88.70
70456;DHT22;57916;51.996;5.180;2024-02-15T07:04:35;15.70;88.80
70456;DHT22;57916;51.996;5.180;2024-02-15T07:07:04;15.70;88.70
70456;DHT22;57916;51.996;5.180;2024-02-15T07:09:31;15.70;88.60
70456;DHT22;57916;51.996;5.180;2024-02-15T07:11:59;15.70;88.70
70456;DHT22;57916;51.996;5.180;2024-02-15T07:14:26;15.70;88.80
70456;DHT22;57916;51.996;5.180;2024-02-15T07:16:55;15.70;88.90
70456;DHT22;57916;51.996;5.180;2024-02-15T07:19:25;15.70;89.00
70456;DHT22;57916;51.996;5.180;2024-02-15T07:21:55;15.70;89.00
70456;DHT22;57916;51.996;5.180;2024-02-15T07:24:24;15.70;88.90
70456;DHT22;57916;51.996;5.180;2024-02-15T07:26:54;15.70;88.90
70456;DHT22;57916;51.996;5.180;2024-02-15T07:29:24;15.70;88.90
70456;DHT22;57916;51.996;5.180;2024-02-15T07:31:52;15.80;89.70
70456;DHT22;57916;51.996;5.180;2024-02-15T07:34:20;15.80;88.70
70456;DHT22;57916;51.996;5.180;2024-02-15T07:36:48;15.80;88.60
70456;DHT22;57916;51.996;5.180;2024-02-15T07:39:15;15.80;88.60
70456;DHT22;57916;51.996;5.180;2024-02-15T07:41:54;15.90;88.60
70456;DHT22;57916;51.996;5.180;2024-02-15T07:44:21;15.90;88.50
70456;DHT22;57916;51.996;5.180;2024-02-15T07:46:51;15.90;88.40
70456;DHT22;57916;51.996;5.180;2024-02-15T07:49:18;15.90;88.40
70456;DHT22;57916;51.996;5.180;2024-02-15T07:51:46;15.90;88.50
70456;DHT22;57916;51.996;5.180;2024-02-15T07:54:20;15.90;88.50
70456;DHT22;57916;51.996;5.180;2024-02-15T07:56:50;15.90;88.40
70456;DHT22;57916;51.996;5.180;2024-02-15T07:59:17;16.00;88.40
70456;DHT22;57916;51.996;5.180;2024-02-15T08:01:44;16.00;88.30
70456;DHT22;57916;51.996;5.180;2024-02-15T08:04:17;16.00;88.10
70456;DHT22;57916;51.996;5.180;2024-02-15T08:06:45;16.00;88.00
70456;DHT22;57916;51.996;5.180;2024-02-15T08:09:12;16.00;88.20
70456;DHT22;57916;51.996;5.180;2024-02-15T08:11:41;16.00;88.30
70456;DHT22;57916;51.996;5.180;2024-02-15T08:14:08;16.00;88.30
70456;DHT22;57916;51.996;5.180;2024-02-15T08:16:40;16.00;88.30
70456;DHT22;57916;51.996;5.180;2024-02-15T08:19:08;15.90;88.50
70456;DHT22;57916;51.996;5.180;2024-02-15T08:21:37;15.80;88.70
70456;DHT22;57916;51.996;5.180;2024-02-15T08:24:04;15.80;89.00
70456;DHT22;57916;51.996;5.180;2024-02-15T08:26:38;15.70;89.20
70456;DHT22;57916;51.996;5.180;2024-02-15T08:29:05;15.70;89.40
70456;DHT22;57916;51.996;5.180;2024-02-15T08:31:36;15.70;89.70
70456;DHT22;57916;51.996;5.180;2024-02-15T08:34:03;15.70;89.80
70456;DHT22;57916;51.996;5.180;2024-02-15T08:36:33;15.70;89.90
70456;DHT22;57916;51.996;5.180;2024-02-15T08:39:00;15.70;90.00
70456;DHT22;57916;51.996;5.180;2024-02-15T08:41:28;15.70;90.00
70456;DHT22;57916;51.996;5.180;2024-02-15T08:43:55;15.70;90.10
70456;DHT22;57916;51.996;5.180;2024-02-15T08:46:27;15.70;90.10
70456;DHT22;57916;51.996;5.180;2024-02-15T08:48:54;15.70;90.10
70456;DHT22;57916;51.996;5.180;2024-02-15T08:51:21;15.70;90.10
70456;DHT22;57916;51.996;5.180;2024-02-15T08:53:51;15.70;90.20
70456;DHT22;57916;51.996;5.180;2024-02-15T08:56:18;15.70;90.20
70456;DHT22;57916;51.996;5.180;2024-02-15T08:58:45;15.70;90.20
70456;DHT22;57916;51.996;5.180;2024-02-15T09:01:14;15.70;90.20
70456;DHT22;57916;51.996;5.180;2024-02-15T09:03:41;15.80;90.20
70456;DHT22;57916;51.996;5.180;2024-02-15T09:06:08;15.80;90.00
70456;DHT22;57916;51.996;5.180;2024-02-15T09:08:36;15.90;90.00
70456;DHT22;57916;51.996;5.180;2024-02-15T09:11:03;15.90;89.70
70456;DHT22;57916;51.996;5.180;2024-02-15T09:13:32;16.00;89.60
70456;DHT22;57916;51.996;5.180;2024-02-15T09:16:01;15.90;89.60
70456;DHT22;57916;51.996;5.180;2024-02-15T09:18:28;15.90;89.70
70456;DHT22;57916;51.996;5.180;2024-02-15T09:20:55;15.90;89.80
70456;DHT22;57916;51.996;5.180;2024-02-15T09:23:23;16.00;89.80
70456;DHT22;57916;51.996;5.180;2024-02-15T09:25:50;16.00;89.70
70456;DHT22;57916;51.996;5.180;2024-02-15T09:28:20;16.00;89.70
70456;DHT22;57916;51.996;5.180;2024-02-15T09:30:50;16.00;89.60
70456;DHT22;57916;51.996;5.180;2024-02-15T09:33:22;16.00;89.70
70456;DHT22;57916;51.996;5.180;2024-02-15T09:35:52;16.00;89.70
70456;DHT22;57916;51.996;5.180;2024-02-15T09:38:29;16.10;89.50
70456;DHT22;57916;51.996;5.180;2024-02-15T09:41:00;16.10;89.30
70456;DHT22;57916;51.996;5.180;2024-02-15T09:43:27;16.10;89.10
70456;DHT22;57916;51.996;5.180;2024-02-15T09:45:56;16.10;89.10
70456;DHT22;57916;51.996;5.180;2024-02-15T09:48:25;16.10;88.90
70456;DHT22;57916;51.996;5.180;2024-02-15T09:50:53;16.10;89.70
70456;DHT22;57916;51.996;5.180;2024-02-15T09:53:22;16.10;88.70
70456;DHT22;57916;51.996;5.180;2024-02-15T09:55:56;16.20;88.70
70456;DHT22;57916;51.996;5.180;2024-02-15T09:58:31;16.20;88.50
70456;DHT22;57916;51.996;5.180;2024-02-15T10:01:04;16.20;88.50
70456;DHT22;57916;51.996;5.180;2024-02-15T10:03:38;16.20;88.50
70456;DHT22;57916;51.996;5.180;2024-02-15T10:06:07;16.20;88.70
70456;DHT22;57916;51.996;5.180;2024-02-15T10:08:34;16.20;88.60
70456;DHT22;57916;51.996;5.180;2024-02-15T10:11:08;16.30;88.70
70456;DHT22;57916;51.996;5.180;2024-02-15T10:13:37;16.30;88.50
70456;DHT22;57916;51.996;5.180;2024-02-15T10:18:41;16.40;87.90
70456;DHT22;57916;51.996;5.180;2024-02-15T10:21:09;16.40;87.70
70456;DHT22;57916;51.996;5.180;2024-02-15T10:23:38;16.50;87.70
70456;DHT22;57916;51.996;5.180;2024-02-15T10:26:19;16.50;87.50
70456;DHT22;57916;51.996;5.180;2024-02-15T10:29:11;16.50;87.40
70456;DHT22;57916;51.996;5.180;2024-02-15T10:31:39;16.60;87.40
70456;DHT22;57916;51.996;5.180;2024-02-15T10:34:09;16.60;87.40
70456;DHT22;57916;51.996;5.180;2024-02-15T10:36:41;16.60;87.30
70456;DHT22;57916;51.996;5.180;2024-02-15T10:39:15;16.70;87.30
70456;DHT22;57916;51.996;5.180;2024-02-15T10:41:52;16.70;87.10
70456;DHT22;57916;51.996;5.180;2024-02-15T10:44:25;16.70;87.00
70456;DHT22;57916;51.996;5.180;2024-02-15T10:46:53;16.80;86.90
70456;DHT22;57916;51.996;5.180;2024-02-15T10:49:22;16.80;86.70
70456;DHT22;57916;51.996;5.180;2024-02-15T10:51:57;16.70;86.70
70456;DHT22;57916;51.996;5.180;2024-02-15T10:54:32;16.80;86.60
70456;DHT22;57916;51.996;5.180;2024-02-15T10:57:04;16.70;86.60
70456;DHT22;57916;51.996;5.180;2024-02-15T10:59:34;16.70;86.60
70456;DHT22;57916;51.996;5.180;2024-02-15T11:04:53;16.80;86.70
70456;DHT22;57916;51.996;5.180;2024-02-15T11:07:25;16.80;87.00
70456;DHT22;57916;51.996;5.180;2024-02-15T11:09:58;16.90;86.90
70456;DHT22;57916;51.996;5.180;2024-02-15T11:12:27;16.90;86.80
70456;DHT22;57916;51.996;5.180;2024-02-15T11:14:55;16.90;86.90
70456;DHT22;57916;51.996;5.180;2024-02-15T11:17:51;16.90;86.90
70456;DHT22;57916;51.996;5.180;2024-02-15T11:23:03;17.00;87.00
70456;DHT22;57916;51.996;5.180;2024-02-15T11:25:37;17.10;87.00
70456;DHT22;57916;51.996;5.180;2024-02-15T11:30:54;17.30;87.00
70456;DHT22;57916;51.996;5.180;2024-02-15T11:33:34;17.30;86.60
70456;DHT22;57916;51.996;5.180;2024-02-15T11:36:09;17.30;86.60
70456;DHT22;57916;51.996;5.180;2024-02-15T11:38:38;17.30;86.40
70456;DHT22;57916;51.996;5.180;2024-02-15T11:41:10;17.30;86.50
70456;DHT22;57916;51.996;5.180;2024-02-15T11:46:13;17.30;86.60
70456;DHT22;57916;51.996;5.180;2024-02-15T11:48:40;17.30;87.30
70456;DHT22;57916;51.996;5.180;2024-02-15T11:51:08;17.40;87.40
70456;DHT22;57916;51.996;5.180;2024-02-15T11:53:38;17.50;87.20
70456;DHT22;57916;51.996;5.180;2024-02-15T11:56:06;17.50;87.00
70456;DHT22;57916;51.996;5.180;2024-02-15T11:58:38;17.60;87.20
70456;DHT22;57916;51.996;5.180;2024-02-15T12:01:19;17.70;86.90
70456;DHT22;57916;51.996;5.180;2024-02-15T12:04:06;17.80;86.90
70456;DHT22;57916;51.996;5.180;2024-02-15T12:06:58;17.90;86.40
70456;DHT22;57916;51.996;5.180;2024-02-15T12:09:44;17.90;86.00
70456;DHT22;57916;51.996;5.180;2024-02-15T12:12:32;18.00;85.70
70456;DHT22;57916;51.996;5.180;2024-02-15T12:15:18;18.00;85.20
70456;DHT22;57916;51.996;5.180;2024-02-15T12:18:14;17.90;84.90
70456;DHT22;57916;51.996;5.180;2024-02-15T12:21:01;18.00;84.70
70456;DHT22;57916;51.996;5.180;2024-02-15T12:23:29;18.00;84.50
70456;DHT22;57916;51.996;5.180;2024-02-15T12:26:01;18.00;84.70
70456;DHT22;57916;51.996;5.180;2024-02-15T12:28:31;18.10;84.50
70456;DHT22;57916;51.996;5.180;2024-02-15T12:31:01;18.10;84.10
70456;DHT22;57916;51.996;5.180;2024-02-15T12:33:31;18.20;83.80
70456;DHT22;57916;51.996;5.180;2024-02-15T12:36:08;18.20;83.50
70456;DHT22;57916;51.996;5.180;2024-02-15T12:38:35;18.30;83.70
70456;DHT22;57916;51.996;5.180;2024-02-15T12:41:21;18.40;83.80
70456;DHT22;57916;51.996;5.180;2024-02-15T12:43:54;18.40;82.60
70456;DHT22;57916;51.996;5.180;2024-02-15T12:46:23;18.50;82.10
70456;DHT22;57916;51.996;5.180;2024-02-15T12:48:50;18.50;81.30
70456;DHT22;57916;51.996;5.180;2024-02-15T12:51:19;18.60;80.90
70456;DHT22;57916;51.996;5.180;2024-02-15T12:53:48;18.60;80.80
70456;DHT22;57916;51.996;5.180;2024-02-15T12:56:21;18.70;80.30
70456;DHT22;57916;51.996;5.180;2024-02-15T12:58:48;18.70;79.90
70456;DHT22;57916;51.996;5.180;2024-02-15T13:01:15;18.70;79.20
70456;DHT22;57916;51.996;5.180;2024-02-15T13:03:43;18.70;79.30
70456;DHT22;57916;51.996;5.180;2024-02-15T13:06:10;18.70;79.40
70456;DHT22;57916;51.996;5.180;2024-02-15T13:08:37;18.80;79.10
70456;DHT22;57916;51.996;5.180;2024-02-15T13:11:04;18.70;78.50
70456;DHT22;57916;51.996;5.180;2024-02-15T13:13:31;18.70;78.90
70456;DHT22;57916;51.996;5.180;2024-02-15T13:16:01;18.70;79.10
70456;DHT22;57916;51.996;5.180;2024-02-15T13:18:29;18.80;78.00
70456;DHT22;57916;51.996;5.180;2024-02-15T13:20:57;18.80;77.60
70456;DHT22;57916;51.996;5.180;2024-02-15T13:23:26;18.80;77.00
70456;DHT22;57916;51.996;5.180;2024-02-15T13:25:54;18.90;77.70
70456;DHT22;57916;51.996;5.180;2024-02-15T13:28:23;18.90;76.80
70456;DHT22;57916;51.996;5.180;2024-02-15T13:30:51;18.90;76.60
70456;DHT22;57916;51.996;5.180;2024-02-15T13:33:21;18.80;76.30
70456;DHT22;57916;51.996;5.180;2024-02-15T13:35:49;18.80;76.70
70456;DHT22;57916;51.996;5.180;2024-02-15T13:38:16;18.80;76.70
70456;DHT22;57916;51.996;5.180;2024-02-15T13:40:50;18.80;76.40
70456;DHT22;57916;51.996;5.180;2024-02-15T13:43:18;18.80;76.80
70456;DHT22;57916;51.996;5.180;2024-02-15T13:45:46;18.70;75.70
70456;DHT22;57916;51.996;5.180;2024-02-15T13:48:13;18.70;76.20
70456;DHT22;57916;51.996;5.180;2024-02-15T13:50:42;18.70;76.50
70456;DHT22;57916;51.996;5.180;2024-02-15T13:53:12;18.70;76.30
70456;DHT22;57916;51.996;5.180;2024-02-15T13:55:41;18.70;76.00
70456;DHT22;57916;51.996;5.180;2024-02-15T13:58:08;18.70;75.70
70456;DHT22;57916;51.996;5.180;2024-02-15T14:00:40;18.60;75.50
70456;DHT22;57916;51.996;5.180;2024-02-15T14:03:11;18.60;75.80
70456;DHT22;57916;51.996;5.180;2024-02-15T14:05:38;18.60;75.70
70456;DHT22;57916;51.996;5.180;2024-02-15T14:08:08;18.60;75.70
70456;DHT22;57916;51.996;5.180;2024-02-15T14:10:36;18.70;76.40
70456;DHT22;57916;51.996;5.180;2024-02-15T14:13:04;18.70;75.10
70456;DHT22;57916;51.996;5.180;2024-02-15T14:15:36;18.70;74.50
70456;DHT22;57916;51.996;5.180;2024-02-15T14:18:11;18.70;75.00
70456;DHT22;57916;51.996;5.180;2024-02-15T14:20:42;18.70;74.70
70456;DHT22;57916;51.996;5.180;2024-02-15T14:23:10;18.70;74.60
70456;DHT22;57916;51.996;5.180;2024-02-15T14:25:42;18.70;74.60
70456;DHT22;57916;51.996;5.180;2024-02-15T14:28:09;18.70;74.70
70456;DHT22;57916;51.996;5.180;2024-02-15T14:30:36;18.70;74.90
70456;DHT22;57916;51.996;5.180;2024-02-15T14:33:22;18.70;74.80
70456;DHT22;57916;51.996;5.180;2024-02-15T14:35:50;18.70;74.80
70456;DHT22;57916;51.996;5.180;2024-02-15T14:38:20;18.70;74.70
70456;DHT22;57916;51.996;5.180;2024-02-15T14:40:49;18.70;74.50
70456;DHT22;57916;51.996;5.180;2024-02-15T14:43:20;18.70;74.40
70456;DHT22;57916;51.996;5.180;2024-02-15T14:45:48;18.80;74.80
70456;DHT22;57916;51.996;5.180;2024-02-15T14:48:16;18.80;74.40
70456;DHT22;57916;51.996;5.180;2024-02-15T14:50:48;18.80;74.40
70456;DHT22;57916;51.996;5.180;2024-02-15T14:53:18;18.90;74.40
70456;DHT22;57916;51.996;5.180;2024-02-15T14:55:45;18.80;74.20
70456;DHT22;57916;51.996;5.180;2024-02-15T14:58:13;18.80;74.20
70456;DHT22;57916;51.996;5.180;2024-02-15T15:00:44;18.80;74.10
70456;DHT22;57916;51.996;5.180;2024-02-15T15:03:13;18.80;74.10
70456;DHT22;57916;51.996;5.180;2024-02-15T15:05:41;18.80;74.00
70456;DHT22;57916;51.996;5.180;2024-02-15T15:08:27;18.80;73.70
70456;DHT22;57916;51.996;5.180;2024-02-15T15:11:14;18.80;73.30
70456;DHT22;57916;51.996;5.180;2024-02-15T15:13:59;18.70;73.30
70456;DHT22;57916;51.996;5.180;2024-02-15T15:16:26;18.80;73.00
70456;DHT22;57916;51.996;5.180;2024-02-15T15:18:55;18.80;72.90
70456;DHT22;57916;51.996;5.180;2024-02-15T15:21:23;18.80;73.00
70456;DHT22;57916;51.996;5.180;2024-02-15T15:23:51;18.80;73.00
70456;DHT22;57916;51.996;5.180;2024-02-15T15:26:22;18.90;72.80
70456;DHT22;57916;51.996;5.180;2024-02-15T15:28:51;18.90;73.10
70456;DHT22;57916;51.996;5.180;2024-02-15T15:31:18;18.90;73.00
70456;DHT22;57916;51.996;5.180;2024-02-15T15:33:48;18.90;73.00
70456;DHT22;57916;51.996;5.180;2024-02-15T15:36:17;18.80;72.80
70456;DHT22;57916;51.996;5.180;2024-02-15T15:38:47;18.80;72.80
70456;DHT22;57916;51.996;5.180;2024-02-15T15:41:15;18.80;72.60
70456;DHT22;57916;51.996;5.180;2024-02-15T15:43:43;18.80;72.60
70456;DHT22;57916;51.996;5.180;2024-02-15T15:46:14;18.70;72.50
70456;DHT22;57916;51.996;5.180;2024-02-15T15:48:43;18.70;72.50
70456;DHT22;57916;51.996;5.180;2024-02-15T15:51:12;18.60;72.50
70456;DHT22;57916;51.996;5.180;2024-02-15T15:53:41;18.60;72.50
70456;DHT22;57916;51.996;5.180;2024-02-15T15:56:09;18.60;72.50
70456;DHT22;57916;51.996;5.180;2024-02-15T15:58:38;18.60;72.50